createdAt,value
2022-09-23T00:02:57.092Z,12.39
2022-09-23T00:07:09.413Z,12.37
2022-09-23T00:11:27.134Z,12.37
2022-09-23T00:15:39.757Z,12.32
2022-09-23T00:19:51.246Z,12.33
2022-09-23T00:24:02.786Z,12.34
2022-09-23T00:28:14.346Z,12.29
2022-09-23T00:32:26.405Z,12.23
2022-09-23T00:36:38.589Z,12.16
2022-09-23T00:40:51.355Z,12.20
2022-09-23T00:45:04.413Z,12.19
2022-09-23T00:49:30.193Z,12.13
2022-09-23T00:53:42.230Z,12.11
2022-09-23T00:57:59.168Z,12.07
2022-09-23T01:02:14.048Z,12.03
2022-09-23T01:06:26.254Z,11.96
2022-09-23T01:10:59.788Z,11.94
2022-09-23T01:15:19.738Z,11.87
2022-09-23T01:19:36.251Z,11.80
2022-09-23T01:24:06.098Z,11.70
2022-09-23T01:28:37.879Z,11.69
2022-09-23T01:33:01.939Z,11.62
2022-09-23T01:37:19.392Z,11.59
2022-09-23T01:41:48.177Z,11.45
2022-09-23T01:46:02.363Z,11.39
2022-09-23T01:50:40.607Z,11.36
2022-09-23T01:55:00.318Z,11.34
2022-09-23T01:59:17.761Z,11.23
2022-09-23T02:03:37.036Z,11.16
2022-09-23T02:07:59.899Z,11.10
2022-09-23T02:12:18.896Z,11.02
2022-09-23T02:16:42.326Z,11.02
2022-09-23T02:21:00.414Z,10.93
2022-09-23T02:25:12.564Z,10.88
2022-09-23T02:30:17.172Z,10.91
2022-09-23T02:34:32.910Z,10.86
2022-09-23T02:38:57.536Z,10.96
2022-09-23T02:43:11.985Z,10.94
2022-09-23T02:47:29.130Z,10.98
2022-09-23T02:51:40.974Z,11.01
2022-09-23T02:55:52.533Z,11.03
2022-09-23T03:00:05.475Z,10.97
2022-09-23T03:04:35.826Z,11.10
2022-09-23T03:08:54.805Z,11.00
2022-09-23T03:13:35.359Z,11.00
2022-09-23T03:18:12.875Z,11.00
2022-09-23T03:22:34.191Z,10.93
2022-09-23T03:26:47.789Z,10.90
2022-09-23T03:31:02.139Z,10.84
2022-09-23T03:35:14.593Z,10.83
2022-09-23T03:39:48.665Z,10.76
2022-09-23T03:44:00.933Z,10.65
2022-09-23T03:48:14.994Z,10.63
2022-09-23T03:52:26.894Z,10.58
2022-09-23T03:56:38.398Z,10.57
2022-09-23T04:00:50.004Z,10.50
2022-09-23T04:05:01.680Z,10.51
2022-09-23T04:09:13.376Z,10.42
2022-09-23T04:13:24.901Z,10.37
2022-09-23T04:17:36.669Z,10.35
2022-09-23T04:21:48.626Z,10.40
2022-09-23T04:26:00.237Z,10.38
2022-09-23T04:30:12.609Z,10.42
2022-09-23T04:34:24.189Z,10.50
2022-09-23T04:38:35.724Z,10.55
2022-09-23T04:42:47.216Z,10.54
2022-09-23T04:46:58.859Z,10.58
2022-09-23T04:51:11.688Z,10.68
2022-09-23T04:55:23.231Z,10.63
2022-09-23T04:59:34.806Z,10.66
2022-09-23T05:03:46.759Z,10.65
2022-09-23T05:07:58.319Z,10.70
2022-09-23T05:12:10.033Z,10.71
2022-09-23T05:16:23.393Z,10.71
2022-09-23T05:20:35.181Z,10.71
2022-09-23T05:24:46.711Z,10.71
2022-09-23T05:28:59.018Z,10.76
2022-09-23T05:33:11.026Z,10.78
2022-09-23T05:37:23.243Z,10.86
2022-09-23T05:41:35.005Z,10.88
2022-09-23T05:45:46.526Z,10.87
2022-09-23T05:50:00.482Z,10.91
2022-09-23T05:54:12.714Z,10.95
2022-09-23T05:58:25.049Z,11.07
2022-09-23T06:02:36.839Z,11.07
2022-09-23T06:06:48.546Z,11.27
2022-09-23T06:11:07.114Z,11.40
2022-09-23T06:15:18.863Z,11.51
2022-09-23T06:19:30.462Z,11.60
2022-09-23T06:23:43.696Z,11.64
2022-09-23T06:27:56.367Z,11.75
2022-09-23T06:32:07.900Z,11.78
2022-09-23T06:36:35.881Z,11.84
2022-09-23T06:40:52.292Z,11.95
2022-09-23T06:45:04.116Z,12.05
2022-09-23T06:49:15.666Z,12.17
2022-09-23T06:53:27.232Z,12.21
2022-09-23T06:57:39.552Z,12.19
2022-09-23T07:01:51.131Z,12.30
2022-09-23T07:06:03.212Z,12.40
2022-09-23T07:10:15.037Z,12.49
2022-09-23T07:14:26.893Z,12.56
2022-09-23T07:18:39.052Z,12.63
2022-09-23T07:22:52.174Z,12.74
2022-09-23T07:27:03.775Z,12.78
2022-09-23T07:31:28.174Z,12.89
2022-09-23T07:35:46.291Z,12.98
2022-09-23T07:39:57.817Z,13.07
2022-09-23T07:44:11.062Z,13.14
2022-09-23T07:48:22.540Z,13.31
2022-09-23T07:52:38.156Z,13.55
2022-09-23T07:56:49.639Z,13.88
2022-09-23T08:01:04.044Z,14.39
2022-09-23T08:05:16.317Z,14.87
2022-09-23T08:09:33.974Z,15.26
2022-09-23T08:13:45.487Z,15.70
2022-09-23T08:18:00.424Z,16.21
2022-09-23T08:22:12.182Z,16.67
2022-09-23T08:26:23.990Z,17.02
2022-09-23T08:30:35.527Z,17.00
2022-09-23T08:34:47.090Z,16.94
2022-09-23T08:38:58.596Z,16.96
2022-09-23T08:43:27.403Z,16.87
2022-09-23T08:47:57.658Z,16.72
2022-09-23T08:52:17.785Z,16.74
2022-09-23T08:56:30.585Z,16.83
2022-09-23T09:00:44.981Z,16.89
2022-09-23T09:05:05.977Z,16.97
2022-09-23T09:09:30.927Z,17.02
2022-09-23T09:13:54.982Z,17.20
2022-09-23T09:18:13.831Z,17.77
2022-09-23T09:22:41.713Z,18.40
2022-09-23T09:26:53.647Z,18.71
2022-09-23T09:31:42.929Z,19.11
2022-09-23T09:36:14.991Z,19.25
2022-09-23T09:40:26.531Z,19.30
2022-09-23T09:44:50.477Z,19.32
2022-09-23T09:49:10.367Z,19.33
2022-09-23T09:53:27.379Z,19.41
2022-09-23T09:57:53.623Z,19.33
2022-09-23T10:02:26.536Z,19.40
2022-09-23T10:06:38.068Z,19.75
2022-09-23T10:10:58.986Z,20.15
2022-09-23T10:15:27.402Z,20.56
2022-09-23T10:19:46.482Z,20.94
2022-09-23T10:23:58.530Z,21.20
2022-09-23T10:28:30.674Z,21.41
2022-09-23T10:32:45.592Z,21.48
2022-09-23T10:37:16.914Z,21.49
2022-09-23T10:41:58.130Z,21.61
2022-09-23T10:46:41.376Z,22.01
2022-09-23T10:50:54.226Z,22.19
2022-09-23T10:55:31.456Z,22.24
2022-09-23T11:00:14.867Z,21.99
2022-09-23T11:04:45.211Z,21.64
2022-09-23T11:09:32.812Z,21.24
2022-09-23T11:13:54.563Z,20.94
2022-09-23T11:18:16.849Z,20.68
2022-09-23T11:23:00.984Z,20.47
2022-09-23T11:27:16.514Z,20.40
2022-09-23T11:31:59.305Z,20.34
2022-09-23T11:36:34.604Z,20.31
2022-09-23T11:40:54.637Z,20.32
2022-09-23T11:45:21.373Z,20.35
2022-09-23T11:49:39.304Z,20.32
2022-09-23T11:53:50.832Z,20.28
2022-09-23T11:58:23.808Z,20.16
2022-09-23T12:03:07.628Z,20.25
2022-09-23T12:07:24.499Z,20.28
2022-09-23T12:11:44.823Z,20.31
2022-09-23T12:16:17.799Z,20.45
2022-09-23T12:20:37.801Z,20.58
2022-09-23T12:24:55.818Z,20.69
2022-09-23T12:29:14.081Z,20.77
2022-09-23T12:33:28.310Z,20.96
2022-09-23T12:37:39.883Z,21.17
2022-09-23T12:41:58.532Z,21.26
2022-09-23T12:46:25.538Z,21.41
2022-09-23T12:51:15.791Z,21.43
2022-09-23T12:55:33.403Z,21.35
2022-09-23T12:59:58.462Z,21.25
2022-09-23T13:05:01.768Z,21.24
2022-09-23T13:09:19.028Z,21.27
2022-09-23T13:13:45.417Z,21.15
2022-09-23T13:18:18.834Z,21.19
2022-09-23T13:23:00.802Z,21.06
2022-09-23T13:27:20.155Z,21.09
2022-09-23T13:31:31.834Z,21.02
2022-09-23T13:35:50.533Z,21.04
2022-09-23T13:40:30.039Z,20.99
2022-09-23T13:44:41.647Z,20.98
2022-09-23T13:48:54.586Z,20.94
2022-09-23T13:53:09.960Z,20.88
2022-09-23T13:57:27.460Z,20.92
2022-09-23T14:01:39.232Z,20.92
2022-09-23T14:05:52.046Z,20.99
2022-09-23T14:10:06.420Z,21.02
2022-09-23T14:14:18.458Z,20.99
2022-09-23T14:18:36.417Z,21.10
2022-09-23T14:22:47.983Z,21.06
2022-09-23T14:27:11.986Z,21.06
2022-09-23T14:31:23.801Z,21.02
2022-09-23T14:35:42.701Z,20.98
2022-09-23T14:39:57.696Z,20.84
2022-09-23T14:44:22.256Z,20.81
2022-09-23T14:48:35.679Z,20.70
2022-09-23T14:52:51.383Z,20.69
2022-09-23T14:57:18.999Z,20.63
2022-09-23T15:01:30.579Z,20.62
2022-09-23T15:05:46.164Z,20.59
2022-09-23T15:09:58.330Z,20.50
2022-09-23T15:14:36.231Z,20.48
2022-09-23T15:18:46.197Z,20.49
2022-09-23T15:22:57.737Z,20.35
2022-09-23T15:27:27.069Z,20.33
2022-09-23T15:31:38.976Z,20.19
2022-09-23T15:35:50.537Z,20.14
2022-09-23T15:40:02.360Z,20.05
2022-09-23T15:44:15.677Z,19.96
2022-09-23T15:48:37.321Z,19.91
2022-09-23T15:52:48.854Z,19.83
2022-09-23T15:57:01.077Z,19.82
2022-09-23T16:01:26.420Z,19.79
2022-09-23T16:05:39.788Z,19.78
2022-09-23T16:09:51.682Z,19.69
2022-09-23T16:14:03.234Z,19.64
2022-09-23T16:18:14.763Z,19.54
2022-09-23T16:22:26.279Z,19.50
2022-09-23T16:26:39.658Z,19.41
2022-09-23T16:30:51.212Z,19.31
2022-09-23T16:35:02.892Z,19.19
2022-09-23T16:39:14.473Z,19.06
2022-09-23T16:43:39.151Z,18.99
2022-09-23T16:47:51.882Z,18.91
2022-09-23T16:52:03.731Z,18.75
2022-09-23T16:56:16.897Z,18.74
2022-09-23T17:00:47.091Z,18.64
2022-09-23T17:04:58.961Z,18.38
2022-09-23T17:09:11.398Z,18.28
2022-09-23T17:13:23.171Z,18.13
2022-09-23T17:17:37.536Z,17.97
2022-09-23T17:21:49.135Z,17.90
2022-09-23T17:26:01.337Z,17.78
2022-09-23T17:30:14.528Z,17.71
2022-09-23T17:34:26.203Z,17.63
2022-09-23T17:38:41.383Z,17.61
2022-09-23T17:42:55.843Z,17.54
2022-09-23T17:47:07.454Z,17.46
2022-09-23T17:51:19.868Z,17.40
2022-09-23T17:55:31.452Z,17.30
2022-09-23T17:59:43.144Z,17.33
2022-09-23T18:04:02.211Z,17.30
2022-09-23T18:08:13.814Z,17.25
2022-09-23T18:12:25.400Z,17.26
2022-09-23T18:16:39.527Z,17.14
2022-09-23T18:20:51.146Z,17.08
2022-09-23T18:25:13.229Z,17.09
2022-09-23T18:29:35.599Z,16.98
2022-09-23T18:33:51.809Z,16.92
2022-09-23T18:38:15.736Z,16.89
2022-09-23T18:42:27.486Z,16.86
2022-09-23T18:46:39.036Z,16.83
2022-09-23T18:50:51.822Z,16.82
2022-09-23T18:55:03.519Z,16.77
2022-09-23T18:59:19.331Z,16.75
2022-09-23T19:03:30.901Z,16.69
2022-09-23T19:07:42.460Z,16.68
2022-09-23T19:11:54.047Z,16.65
2022-09-23T19:16:16.560Z,16.61
2022-09-23T19:20:29.070Z,16.60
2022-09-23T19:24:40.729Z,16.57
2022-09-23T19:28:54.868Z,16.55
2022-09-23T19:33:08.966Z,16.53
2022-09-23T19:37:20.949Z,16.54
2022-09-23T19:41:33.439Z,16.50
2022-09-23T19:45:53.491Z,16.50
2022-09-23T19:50:07.244Z,16.45
2022-09-23T19:54:21.692Z,16.44
2022-09-23T19:58:35.277Z,16.43
2022-09-23T20:02:47.017Z,16.40
2022-09-23T20:06:58.580Z,16.35
2022-09-23T20:11:13.193Z,16.29
2022-09-23T20:15:24.979Z,16.24
2022-09-23T20:19:36.603Z,16.23
2022-09-23T20:23:48.442Z,16.22
2022-09-23T20:28:00.058Z,16.18
2022-09-23T20:32:11.694Z,16.17
2022-09-23T20:36:24.235Z,16.16
2022-09-23T20:40:38.306Z,16.12
2022-09-23T20:44:50.017Z,16.15
2022-09-23T20:49:02.317Z,16.12
2022-09-23T20:53:14.082Z,16.08
2022-09-23T20:57:27.688Z,16.00
2022-09-23T21:01:39.408Z,16.01
2022-09-23T21:05:51.839Z,15.99
2022-09-23T21:10:06.865Z,15.97
2022-09-23T21:14:21.548Z,15.97
2022-09-23T21:18:35.133Z,15.93
2022-09-23T21:22:49.781Z,15.90
2022-09-23T21:27:03.872Z,15.90
2022-09-23T21:31:23.669Z,15.90
2022-09-23T21:35:35.561Z,15.88
2022-09-23T21:40:07.173Z,15.84
2022-09-23T21:44:18.860Z,15.78
2022-09-23T21:48:32.766Z,15.79
2022-09-23T21:52:46.341Z,15.79
2022-09-23T21:56:58.168Z,15.75
2022-09-23T22:01:18.359Z,15.68
2022-09-23T22:05:29.959Z,15.62
2022-09-23T22:09:41.513Z,15.65
2022-09-23T22:13:53.563Z,15.61
2022-09-23T22:18:05.894Z,15.53
2022-09-23T22:22:18.622Z,15.55
2022-09-23T22:26:35.867Z,15.48
2022-09-23T22:31:06.115Z,15.48
2022-09-23T22:35:18.267Z,15.46
2022-09-23T22:39:30.494Z,15.45
2022-09-23T22:43:42.097Z,15.41
2022-09-23T22:47:53.754Z,15.44
2022-09-23T22:52:09.133Z,15.40
2022-09-23T22:56:20.860Z,15.41
2022-09-23T23:00:32.457Z,15.36
2022-09-23T23:04:46.275Z,15.41
2022-09-23T23:09:00.052Z,15.42
2022-09-23T23:13:11.645Z,15.41
2022-09-23T23:17:23.267Z,15.43
2022-09-23T23:21:36.378Z,15.45
2022-09-23T23:25:48.667Z,15.40
2022-09-23T23:30:00.265Z,15.40
2022-09-23T23:34:14.610Z,15.38
2022-09-23T23:38:26.798Z,15.36
2022-09-23T23:42:38.413Z,15.36
2022-09-23T23:46:50.060Z,15.35
2022-09-23T23:51:03.437Z,15.32
2022-09-23T23:55:15.982Z,15.33
2022-09-23T23:59:28.329Z,15.33
